Stokesdale, North Carolina
Current Conditions -  °F | °C
As of 2:54 AM on Sunday 21 Dec 2014 (Local Time) from KGSO Reporting Station
Haze Haze  
Wind Chill: 38°   Ceiling: 2300
Heat Index: 38°   Visibility: 6mi
Dew Point: 35°   Wind: 0mph
Humidity: 89%   Direction: NA
Pressure: 30.24"   Gusts: NA
Location:  36.24°N, 79.98°W
Report Text: KGSO 210754Z 00000KT 6SM BR OVC023 03/02 A3024 RMK AO2 SLP244 T00330017
Loading
Personal Weather Stations






























Interactive Weather Map New forecast layout! Learn more

10-Day Weather Forecast

Advertisements
Track Severe Weather on mobile